Orland Park, Illinois
Current Conditions -  °F | °C
As of 3:15 AM on Friday 31 Oct 2014 (Local Time) from KLOT Reporting Station
Overcast Overcast  
Wind Chill: 41°   Ceiling: 3800
Heat Index: 46°   Visibility: 10mi
Dew Point: 37°   Wind: 9mph
Humidity: 72%   Direction: 330°NNW
Pressure: 30.03"   Gusts: NA
Location:  41.62°N, 87.85°W
Report Text: KLOT 310815Z AUTO 33008KT 10SM SCT024 OVC038 08/03 A3003 RMK AO2 T00760028
Loading
Personal Weather Stations






























Interactive Weather Map New forecast layout! Learn more

10-Day Weather Forecast

Advertisements
Track Severe Weather on mobile